Poperinge, Belgium
Current Conditions -  °F | °C
As of 11:55 AM on Friday 31 Oct 2014 (Local Time) from EBFN Reporting Station
Broken Clouds Broken Clouds  
Wind Chill: 63°   Ceiling: 23000
Heat Index: 63°   Visibility: 6mi
Dew Point: 54°   Wind: 8mph
Humidity: 72%   Direction: 160°SSE
Pressure: 30.15"   Gusts: NA
Location:  50.85°N, 2.73°E
Report Text: EBFN 311055Z 16007KT 9999 FEW100 BKN230 17/12 Q1021 BLU BLU
Loading
Personal Weather Stations






























Interactive Weather Map
Tropical Storm Tracking
New forecast layout! Learn more

10-Day Weather Forecast

Advertisements
Track Severe Weather on mobile